sensor_id;sensor_type;location;lat;lon;timestamp;P1;durP1;ratioP1;P2;durP2;ratioP2
19867;SDS011;10096;51.112;6.776;2023-12-20T00:02:29;18.13;;;14.23;;
19867;SDS011;10096;51.112;6.776;2023-12-20T00:04:55;8.47;;;6.47;;
19867;SDS011;10096;51.112;6.776;2023-12-20T00:07:25;9.43;;;6.20;;
19867;SDS011;10096;51.112;6.776;2023-12-20T00:09:51;8.93;;;5.53;;
19867;SDS011;10096;51.112;6.776;2023-12-20T00:12:21;8.23;;;5.27;;
19867;SDS011;10096;51.112;6.776;2023-12-20T00:15:09;6.90;;;4.93;;
19867;SDS011;10096;51.112;6.776;2023-12-20T00:17:38;7.77;;;4.77;;
19867;SDS011;10096;51.112;6.776;2023-12-20T00:20:05;6.60;;;5.17;;
19867;SDS011;10096;51.112;6.776;2023-12-20T00:22:33;6.60;;;5.20;;
19867;SDS011;10096;51.112;6.776;2023-12-20T00:25:00;7.37;;;5.83;;
19867;SDS011;10096;51.112;6.776;2023-12-20T00:27:27;6.33;;;5.70;;
19867;SDS011;10096;51.112;6.776;2023-12-20T00:29:54;7.47;;;5.50;;
19867;SDS011;10096;51.112;6.776;2023-12-20T00:32:23;6.97;;;5.10;;
19867;SDS011;10096;51.112;6.776;2023-12-20T00:34:50;8.80;;;5.33;;
19867;SDS011;10096;51.112;6.776;2023-12-20T00:37:18;9.67;;;6.77;;
19867;SDS011;10096;51.112;6.776;2023-12-20T00:39:45;7.60;;;6.30;;
19867;SDS011;10096;51.112;6.776;2023-12-20T00:42:12;10.17;;;6.83;;
19867;SDS011;10096;51.112;6.776;2023-12-20T00:44:39;9.10;;;6.90;;
19867;SDS011;10096;51.112;6.776;2023-12-20T00:47:06;9.73;;;6.37;;
19867;SDS011;10096;51.112;6.776;2023-12-20T00:49:38;10.33;;;5.77;;
19867;SDS011;10096;51.112;6.776;2023-12-20T00:52:05;11.00;;;6.70;;
19867;SDS011;10096;51.112;6.776;2023-12-20T00:54:32;8.63;;;6.63;;
19867;SDS011;10096;51.112;6.776;2023-12-20T00:57:01;9.50;;;6.87;;
19867;SDS011;10096;51.112;6.776;2023-12-20T00:59:28;11.77;;;7.77;;
19867;SDS011;10096;51.112;6.776;2023-12-20T01:01:55;10.63;;;6.90;;
19867;SDS011;10096;51.112;6.776;2023-12-20T01:04:22;10.20;;;6.73;;
19867;SDS011;10096;51.112;6.776;2023-12-20T01:06:51;10.93;;;7.33;;
19867;SDS011;10096;51.112;6.776;2023-12-20T01:09:18;14.77;;;6.70;;
19867;SDS011;10096;51.112;6.776;2023-12-20T01:11:48;11.30;;;7.20;;
19867;SDS011;10096;51.112;6.776;2023-12-20T01:14:15;10.10;;;7.67;;
19867;SDS011;10096;51.112;6.776;2023-12-20T01:16:43;9.87;;;8.00;;
19867;SDS011;10096;51.112;6.776;2023-12-20T01:19:10;12.70;;;8.40;;
19867;SDS011;10096;51.112;6.776;2023-12-20T01:21:38;12.83;;;9.57;;
19867;SDS011;10096;51.112;6.776;2023-12-20T01:24:06;14.27;;;8.97;;
19867;SDS011;10096;51.112;6.776;2023-12-20T01:26:33;14.63;;;9.77;;
19867;SDS011;10096;51.112;6.776;2023-12-20T01:29:02;12.97;;;9.00;;
19867;SDS011;10096;51.112;6.776;2023-12-20T01:31:29;13.10;;;9.43;;
19867;SDS011;10096;51.112;6.776;2023-12-20T01:33:58;14.10;;;9.07;;
19867;SDS011;10096;51.112;6.776;2023-12-20T01:36:25;12.07;;;8.63;;
19867;SDS011;10096;51.112;6.776;2023-12-20T01:38:52;11.27;;;7.57;;
19867;SDS011;10096;51.112;6.776;2023-12-20T01:41:20;12.83;;;8.30;;
19867;SDS011;10096;51.112;6.776;2023-12-20T01:43:47;12.77;;;7.93;;
19867;SDS011;10096;51.112;6.776;2023-12-20T01:46:14;13.77;;;8.60;;
19867;SDS011;10096;51.112;6.776;2023-12-20T01:48:41;10.33;;;7.17;;
19867;SDS011;10096;51.112;6.776;2023-12-20T01:51:08;12.97;;;7.70;;
19867;SDS011;10096;51.112;6.776;2023-12-20T01:53:38;10.10;;;7.53;;
19867;SDS011;10096;51.112;6.776;2023-12-20T01:56:06;11.13;;;7.37;;
19867;SDS011;10096;51.112;6.776;2023-12-20T01:58:38;12.30;;;7.97;;
19867;SDS011;10096;51.112;6.776;2023-12-20T02:01:09;15.10;;;7.47;;
19867;SDS011;10096;51.112;6.776;2023-12-20T02:03:36;12.07;;;7.60;;
19867;SDS011;10096;51.112;6.776;2023-12-20T02:06:04;11.07;;;7.17;;
19867;SDS011;10096;51.112;6.776;2023-12-20T02:08:34;11.77;;;7.13;;
19867;SDS011;10096;51.112;6.776;2023-12-20T02:11:10;12.63;;;7.67;;
19867;SDS011;10096;51.112;6.776;2023-12-20T02:13:35;14.23;;;6.93;;
19867;SDS011;10096;51.112;6.776;2023-12-20T02:16:04;11.67;;;7.80;;
19867;SDS011;10096;51.112;6.776;2023-12-20T02:18:32;14.70;;;7.13;;
19867;SDS011;10096;51.112;6.776;2023-12-20T02:21:01;13.77;;;6.97;;
19867;SDS011;10096;51.112;6.776;2023-12-20T02:23:32;13.37;;;5.87;;
19867;SDS011;10096;51.112;6.776;2023-12-20T02:25:59;11.30;;;5.83;;
19867;SDS011;10096;51.112;6.776;2023-12-20T02:28:25;12.73;;;6.67;;
19867;SDS011;10096;51.112;6.776;2023-12-20T02:30:53;14.30;;;6.43;;
19867;SDS011;10096;51.112;6.776;2023-12-20T02:33:20;10.53;;;5.87;;
19867;SDS011;10096;51.112;6.776;2023-12-20T02:35:46;11.33;;;6.10;;
19867;SDS011;10096;51.112;6.776;2023-12-20T02:38:13;13.53;;;6.10;;
19867;SDS011;10096;51.112;6.776;2023-12-20T02:40:42;11.40;;;5.40;;
19867;SDS011;10096;51.112;6.776;2023-12-20T02:43:09;12.83;;;6.10;;
19867;SDS011;10096;51.112;6.776;2023-12-20T02:45:38;12.53;;;5.60;;
19867;SDS011;10096;51.112;6.776;2023-12-20T02:48:05;15.43;;;5.63;;
19867;SDS011;10096;51.112;6.776;2023-12-20T02:50:33;10.63;;;5.20;;
19867;SDS011;10096;51.112;6.776;2023-12-20T02:53:00;12.17;;;4.97;;
19867;SDS011;10096;51.112;6.776;2023-12-20T02:55:26;14.40;;;4.83;;
19867;SDS011;10096;51.112;6.776;2023-12-20T02:57:55;17.27;;;4.63;;
19867;SDS011;10096;51.112;6.776;2023-12-20T03:00:22;14.37;;;5.23;;
19867;SDS011;10096;51.112;6.776;2023-12-20T03:02:49;10.63;;;4.27;;
19867;SDS011;10096;51.112;6.776;2023-12-20T03:05:16;10.63;;;4.33;;
19867;SDS011;10096;51.112;6.776;2023-12-20T03:07:43;12.63;;;3.70;;
19867;SDS011;10096;51.112;6.776;2023-12-20T03:10:10;13.60;;;3.73;;
19867;SDS011;10096;51.112;6.776;2023-12-20T03:12:38;10.50;;;3.83;;
19867;SDS011;10096;51.112;6.776;2023-12-20T03:15:07;9.13;;;3.63;;
19867;SDS011;10096;51.112;6.776;2023-12-20T03:17:35;10.70;;;3.90;;
19867;SDS011;10096;51.112;6.776;2023-12-20T03:20:02;12.53;;;4.40;;
19867;SDS011;10096;51.112;6.776;2023-12-20T03:22:29;15.33;;;3.93;;
19867;SDS011;10096;51.112;6.776;2023-12-20T03:24:56;12.20;;;4.13;;
19867;SDS011;10096;51.112;6.776;2023-12-20T03:27:22;10.00;;;3.97;;
19867;SDS011;10096;51.112;6.776;2023-12-20T03:29:49;9.83;;;4.30;;
19867;SDS011;10096;51.112;6.776;2023-12-20T03:32:18;8.77;;;4.17;;
19867;SDS011;10096;51.112;6.776;2023-12-20T03:34:45;12.03;;;4.50;;
19867;SDS011;10096;51.112;6.776;2023-12-20T03:37:13;12.17;;;4.27;;
19867;SDS011;10096;51.112;6.776;2023-12-20T03:39:40;10.30;;;5.03;;
19867;SDS011;10096;51.112;6.776;2023-12-20T03:42:08;13.53;;;5.20;;
19867;SDS011;10096;51.112;6.776;2023-12-20T03:44:37;9.57;;;4.43;;
19867;SDS011;10096;51.112;6.776;2023-12-20T03:47:04;11.07;;;4.60;;
19867;SDS011;10096;51.112;6.776;2023-12-20T03:49:33;11.23;;;4.50;;
19867;SDS011;10096;51.112;6.776;2023-12-20T03:52:02;14.07;;;4.80;;
19867;SDS011;10096;51.112;6.776;2023-12-20T03:54:31;12.47;;;4.70;;
19867;SDS011;10096;51.112;6.776;2023-12-20T03:56:58;13.73;;;5.10;;
19867;SDS011;10096;51.112;6.776;2023-12-20T03:59:25;9.13;;;4.57;;
19867;SDS011;10096;51.112;6.776;2023-12-20T04:01:52;12.17;;;5.40;;
19867;SDS011;10096;51.112;6.776;2023-12-20T04:04:20;11.00;;;4.60;;
19867;SDS011;10096;51.112;6.776;2023-12-20T04:06:49;12.63;;;4.20;;
19867;SDS011;10096;51.112;6.776;2023-12-20T04:09:16;15.17;;;5.77;;
19867;SDS011;10096;51.112;6.776;2023-12-20T04:11:45;18.53;;;5.33;;
19867;SDS011;10096;51.112;6.776;2023-12-20T04:14:15;12.20;;;4.63;;
19867;SDS011;10096;51.112;6.776;2023-12-20T04:16:42;11.20;;;4.63;;
19867;SDS011;10096;51.112;6.776;2023-12-20T04:19:09;11.77;;;4.80;;
19867;SDS011;10096;51.112;6.776;2023-12-20T04:21:36;12.30;;;4.53;;
19867;SDS011;10096;51.112;6.776;2023-12-20T04:24:04;9.93;;;4.77;;
19867;SDS011;10096;51.112;6.776;2023-12-20T04:26:32;10.87;;;4.20;;
19867;SDS011;10096;51.112;6.776;2023-12-20T04:28:59;13.63;;;4.80;;
19867;SDS011;10096;51.112;6.776;2023-12-20T04:31:30;16.77;;;4.73;;
19867;SDS011;10096;51.112;6.776;2023-12-20T04:33:57;15.90;;;5.20;;
19867;SDS011;10096;51.112;6.776;2023-12-20T04:36:24;15.97;;;5.23;;
19867;SDS011;10096;51.112;6.776;2023-12-20T04:38:51;12.50;;;5.20;;
19867;SDS011;10096;51.112;6.776;2023-12-20T04:41:20;10.30;;;4.67;;
19867;SDS011;10096;51.112;6.776;2023-12-20T04:43:47;13.43;;;5.80;;
19867;SDS011;10096;51.112;6.776;2023-12-20T04:46:19;11.87;;;5.37;;
19867;SDS011;10096;51.112;6.776;2023-12-20T04:48:45;20.37;;;6.63;;
19867;SDS011;10096;51.112;6.776;2023-12-20T04:51:12;17.33;;;7.93;;
19867;SDS011;10096;51.112;6.776;2023-12-20T04:53:42;17.27;;;6.20;;
19867;SDS011;10096;51.112;6.776;2023-12-20T04:56:09;14.90;;;5.73;;
19867;SDS011;10096;51.112;6.776;2023-12-20T04:58:38;15.70;;;5.43;;
19867;SDS011;10096;51.112;6.776;2023-12-20T05:01:05;15.13;;;5.90;;
19867;SDS011;10096;51.112;6.776;2023-12-20T05:03:34;11.83;;;5.87;;
19867;SDS011;10096;51.112;6.776;2023-12-20T05:06:06;12.90;;;5.70;;
19867;SDS011;10096;51.112;6.776;2023-12-20T05:08:32;14.27;;;4.93;;
19867;SDS011;10096;51.112;6.776;2023-12-20T05:11:00;15.53;;;5.33;;
19867;SDS011;10096;51.112;6.776;2023-12-20T05:13:28;15.93;;;7.13;;
19867;SDS011;10096;51.112;6.776;2023-12-20T05:15:56;12.37;;;6.10;;
19867;SDS011;10096;51.112;6.776;2023-12-20T05:18:26;14.23;;;5.80;;
19867;SDS011;10096;51.112;6.776;2023-12-20T05:21:01;16.90;;;6.23;;
19867;SDS011;10096;51.112;6.776;2023-12-20T05:23:31;12.77;;;6.13;;
19867;SDS011;10096;51.112;6.776;2023-12-20T05:25:58;15.93;;;6.23;;
19867;SDS011;10096;51.112;6.776;2023-12-20T05:28:25;15.13;;;5.30;;
19867;SDS011;10096;51.112;6.776;2023-12-20T05:30:52;10.23;;;5.03;;
19867;SDS011;10096;51.112;6.776;2023-12-20T05:33:20;11.03;;;5.77;;
19867;SDS011;10096;51.112;6.776;2023-12-20T05:35:47;14.27;;;5.47;;
19867;SDS011;10096;51.112;6.776;2023-12-20T05:38:14;13.30;;;5.50;;
19867;SDS011;10096;51.112;6.776;2023-12-20T05:40:43;13.23;;;5.53;;
19867;SDS011;10096;51.112;6.776;2023-12-20T05:43:10;14.33;;;5.70;;
19867;SDS011;10096;51.112;6.776;2023-12-20T05:45:38;16.40;;;6.30;;
19867;SDS011;10096;51.112;6.776;2023-12-20T05:48:06;14.80;;;6.80;;
19867;SDS011;10096;51.112;6.776;2023-12-20T05:50:36;11.30;;;6.07;;
19867;SDS011;10096;51.112;6.776;2023-12-20T05:53:04;14.00;;;5.83;;
19867;SDS011;10096;51.112;6.776;2023-12-20T05:55:33;17.40;;;6.17;;
19867;SDS011;10096;51.112;6.776;2023-12-20T05:58:01;13.70;;;5.40;;
19867;SDS011;10096;51.112;6.776;2023-12-20T06:00:28;13.40;;;5.57;;
19867;SDS011;10096;51.112;6.776;2023-12-20T06:02:56;12.07;;;5.40;;
19867;SDS011;10096;51.112;6.776;2023-12-20T06:05:23;13.17;;;5.47;;
19867;SDS011;10096;51.112;6.776;2023-12-20T06:07:51;13.40;;;6.00;;
19867;SDS011;10096;51.112;6.776;2023-12-20T06:10:19;14.67;;;5.77;;
19867;SDS011;10096;51.112;6.776;2023-12-20T06:12:49;16.07;;;6.47;;
19867;SDS011;10096;51.112;6.776;2023-12-20T06:15:16;15.87;;;5.37;;
19867;SDS011;10096;51.112;6.776;2023-12-20T06:17:43;20.37;;;6.87;;
19867;SDS011;10096;51.112;6.776;2023-12-20T06:20:11;12.13;;;7.10;;
19867;SDS011;10096;51.112;6.776;2023-12-20T06:22:39;14.53;;;6.80;;
19867;SDS011;10096;51.112;6.776;2023-12-20T06:25:12;14.13;;;5.63;;
19867;SDS011;10096;51.112;6.776;2023-12-20T06:27:39;16.20;;;6.27;;
19867;SDS011;10096;51.112;6.776;2023-12-20T06:30:06;15.37;;;5.67;;
19867;SDS011;10096;51.112;6.776;2023-12-20T06:32:35;10.67;;;5.17;;
19867;SDS011;10096;51.112;6.776;2023-12-20T06:35:03;10.10;;;5.43;;
19867;SDS011;10096;51.112;6.776;2023-12-20T06:37:31;11.67;;;5.17;;
19867;SDS011;10096;51.112;6.776;2023-12-20T06:39:58;14.63;;;6.23;;
19867;SDS011;10096;51.112;6.776;2023-12-20T06:42:26;14.43;;;5.20;;
19867;SDS011;10096;51.112;6.776;2023-12-20T06:44:53;12.90;;;5.30;;
19867;SDS011;10096;51.112;6.776;2023-12-20T06:47:22;14.63;;;6.07;;
19867;SDS011;10096;51.112;6.776;2023-12-20T06:49:49;21.23;;;6.67;;
19867;SDS011;10096;51.112;6.776;2023-12-20T06:52:16;15.10;;;5.83;;
19867;SDS011;10096;51.112;6.776;2023-12-20T06:54:45;12.80;;;4.83;;
19867;SDS011;10096;51.112;6.776;2023-12-20T06:57:12;14.87;;;5.47;;
19867;SDS011;10096;51.112;6.776;2023-12-20T06:59:40;17.77;;;6.53;;
19867;SDS011;10096;51.112;6.776;2023-12-20T07:02:12;18.63;;;5.97;;
19867;SDS011;10096;51.112;6.776;2023-12-20T07:04:40;15.67;;;5.57;;
19867;SDS011;10096;51.112;6.776;2023-12-20T07:07:08;15.60;;;5.53;;
19867;SDS011;10096;51.112;6.776;2023-12-20T07:09:35;15.07;;;6.20;;
19867;SDS011;10096;51.112;6.776;2023-12-20T07:12:03;17.63;;;6.80;;
19867;SDS011;10096;51.112;6.776;2023-12-20T07:14:32;9.63;;;5.67;;
19867;SDS011;10096;51.112;6.776;2023-12-20T07:17:08;16.40;;;5.50;;
19867;SDS011;10096;51.112;6.776;2023-12-20T07:19:44;15.27;;;5.53;;
19867;SDS011;10096;51.112;6.776;2023-12-20T07:22:11;15.57;;;6.57;;
19867;SDS011;10096;51.112;6.776;2023-12-20T07:24:38;14.03;;;5.50;;
19867;SDS011;10096;51.112;6.776;2023-12-20T07:27:08;14.67;;;6.30;;
19867;SDS011;10096;51.112;6.776;2023-12-20T07:29:41;12.40;;;5.67;;
19867;SDS011;10096;51.112;6.776;2023-12-20T07:32:10;13.00;;;6.50;;
19867;SDS011;10096;51.112;6.776;2023-12-20T07:34:37;12.43;;;6.83;;
19867;SDS011;10096;51.112;6.776;2023-12-20T07:37:05;11.13;;;6.03;;
19867;SDS011;10096;51.112;6.776;2023-12-20T07:39:39;13.87;;;6.30;;
19867;SDS011;10096;51.112;6.776;2023-12-20T07:42:09;13.50;;;5.67;;
19867;SDS011;10096;51.112;6.776;2023-12-20T07:44:38;15.43;;;6.03;;
19867;SDS011;10096;51.112;6.776;2023-12-20T07:47:06;15.27;;;6.73;;
19867;SDS011;10096;51.112;6.776;2023-12-20T07:49:40;9.43;;;6.30;;
19867;SDS011;10096;51.112;6.776;2023-12-20T07:52:15;16.37;;;7.43;;
19867;SDS011;10096;51.112;6.776;2023-12-20T07:54:45;14.73;;;6.27;;
19867;SDS011;10096;51.112;6.776;2023-12-20T07:57:12;17.30;;;6.57;;
19867;SDS011;10096;51.112;6.776;2023-12-20T07:59:46;15.53;;;6.70;;
19867;SDS011;10096;51.112;6.776;2023-12-20T08:02:15;19.83;;;10.17;;
19867;SDS011;10096;51.112;6.776;2023-12-20T08:04:42;13.87;;;7.53;;
19867;SDS011;10096;51.112;6.776;2023-12-20T08:07:09;15.43;;;8.97;;
19867;SDS011;10096;51.112;6.776;2023-12-20T08:09:36;17.50;;;8.03;;
19867;SDS011;10096;51.112;6.776;2023-12-20T08:12:03;18.33;;;9.53;;
19867;SDS011;10096;51.112;6.776;2023-12-20T08:14:33;17.97;;;11.03;;
19867;SDS011;10096;51.112;6.776;2023-12-20T08:17:00;15.13;;;6.37;;
19867;SDS011;10096;51.112;6.776;2023-12-20T08:19:30;17.70;;;7.00;;
19867;SDS011;10096;51.112;6.776;2023-12-20T08:21:57;21.10;;;11.63;;
19867;SDS011;10096;51.112;6.776;2023-12-20T08:24:25;16.97;;;7.93;;
19867;SDS011;10096;51.112;6.776;2023-12-20T08:26:52;17.10;;;8.03;;
19867;SDS011;10096;51.112;6.776;2023-12-20T08:29:21;17.37;;;8.83;;
19867;SDS011;10096;51.112;6.776;2023-12-20T08:31:51;16.07;;;8.77;;
19867;SDS011;10096;51.112;6.776;2023-12-20T08:34:21;14.53;;;8.60;;
19867;SDS011;10096;51.112;6.776;2023-12-20T08:36:50;15.07;;;7.93;;
19867;SDS011;10096;51.112;6.776;2023-12-20T08:39:21;12.20;;;7.67;;
19867;SDS011;10096;51.112;6.776;2023-12-20T08:41:49;11.83;;;7.00;;
19867;SDS011;10096;51.112;6.776;2023-12-20T08:44:16;13.47;;;6.53;;
19867;SDS011;10096;51.112;6.776;2023-12-20T08:46:43;20.43;;;6.73;;
19867;SDS011;10096;51.112;6.776;2023-12-20T08:49:13;18.80;;;8.10;;
19867;SDS011;10096;51.112;6.776;2023-12-20T08:51:42;12.53;;;5.93;;
19867;SDS011;10096;51.112;6.776;2023-12-20T08:54:12;12.77;;;6.27;;
19867;SDS011;10096;51.112;6.776;2023-12-20T08:56:40;20.10;;;7.63;;
19867;SDS011;10096;51.112;6.776;2023-12-20T08:59:07;16.43;;;6.63;;
19867;SDS011;10096;51.112;6.776;2023-12-20T09:01:43;11.67;;;5.37;;
19867;SDS011;10096;51.112;6.776;2023-12-20T09:04:12;17.17;;;5.67;;
19867;SDS011;10096;51.112;6.776;2023-12-20T09:06:39;16.00;;;6.90;;
19867;SDS011;10096;51.112;6.776;2023-12-20T09:09:06;14.27;;;5.37;;
19867;SDS011;10096;51.112;6.776;2023-12-20T09:11:36;15.53;;;5.73;;
19867;SDS011;10096;51.112;6.776;2023-12-20T09:14:06;11.77;;;4.93;;
19867;SDS011;10096;51.112;6.776;2023-12-20T09:16:33;14.23;;;6.70;;
19867;SDS011;10096;51.112;6.776;2023-12-20T09:19:08;13.73;;;5.60;;
19867;SDS011;10096;51.112;6.776;2023-12-20T09:21:36;12.70;;;5.83;;
19867;SDS011;10096;51.112;6.776;2023-12-20T09:24:03;14.27;;;5.30;;
19867;SDS011;10096;51.112;6.776;2023-12-20T09:26:39;13.97;;;5.20;;
19867;SDS011;10096;51.112;6.776;2023-12-20T09:29:09;17.43;;;6.33;;
19867;SDS011;10096;51.112;6.776;2023-12-20T09:31:40;10.93;;;5.27;;
19867;SDS011;10096;51.112;6.776;2023-12-20T09:34:08;14.60;;;5.37;;
19867;SDS011;10096;51.112;6.776;2023-12-20T09:36:36;16.53;;;6.43;;
19867;SDS011;10096;51.112;6.776;2023-12-20T09:39:07;9.90;;;5.97;;
19867;SDS011;10096;51.112;6.776;2023-12-20T09:41:36;11.13;;;4.77;;
19867;SDS011;10096;51.112;6.776;2023-12-20T09:44:09;15.33;;;5.87;;
19867;SDS011;10096;51.112;6.776;2023-12-20T09:46:43;13.70;;;6.70;;
19867;SDS011;10096;51.112;6.776;2023-12-20T09:49:11;13.60;;;5.47;;
19867;SDS011;10096;51.112;6.776;2023-12-20T09:51:39;11.47;;;5.50;;
19867;SDS011;10096;51.112;6.776;2023-12-20T09:54:08;12.67;;;5.80;;
19867;SDS011;10096;51.112;6.776;2023-12-20T09:56:36;13.33;;;5.50;;
19867;SDS011;10096;51.112;6.776;2023-12-20T09:59:06;11.90;;;5.37;;
19867;SDS011;10096;51.112;6.776;2023-12-20T10:01:33;16.20;;;6.87;;
19867;SDS011;10096;51.112;6.776;2023-12-20T10:04:03;13.50;;;5.40;;
19867;SDS011;10096;51.112;6.776;2023-12-20T10:06:34;13.97;;;5.63;;
19867;SDS011;10096;51.112;6.776;2023-12-20T10:09:03;12.50;;;5.47;;
19867;SDS011;10096;51.112;6.776;2023-12-20T10:11:30;13.93;;;6.20;;
19867;SDS011;10096;51.112;6.776;2023-12-20T10:14:01;14.13;;;5.67;;
19867;SDS011;10096;51.112;6.776;2023-12-20T10:16:32;13.73;;;5.13;;
19867;SDS011;10096;51.112;6.776;2023-12-20T10:19:02;10.20;;;4.30;;
19867;SDS011;10096;51.112;6.776;2023-12-20T10:21:29;10.77;;;4.03;;
19867;SDS011;10096;51.112;6.776;2023-12-20T10:23:57;10.50;;;4.80;;
19867;SDS011;10096;51.112;6.776;2023-12-20T10:26:27;9.40;;;4.87;;
19867;SDS011;10096;51.112;6.776;2023-12-20T10:28:59;12.40;;;4.73;;
19867;SDS011;10096;51.112;6.776;2023-12-20T10:31:27;12.20;;;4.97;;
19867;SDS011;10096;51.112;6.776;2023-12-20T10:33:57;10.03;;;4.30;;
19867;SDS011;10096;51.112;6.776;2023-12-20T10:36:25;11.83;;;4.70;;
19867;SDS011;10096;51.112;6.776;2023-12-20T10:38:53;10.03;;;4.53;;
19867;SDS011;10096;51.112;6.776;2023-12-20T10:41:24;10.80;;;4.77;;
19867;SDS011;10096;51.112;6.776;2023-12-20T10:43:53;12.07;;;4.77;;
19867;SDS011;10096;51.112;6.776;2023-12-20T10:46:22;13.37;;;4.70;;
19867;SDS011;10096;51.112;6.776;2023-12-20T10:49:01;11.10;;;4.30;;
19867;SDS011;10096;51.112;6.776;2023-12-20T10:51:29;13.20;;;4.20;;
19867;SDS011;10096;51.112;6.776;2023-12-20T10:53:57;15.57;;;5.30;;
19867;SDS011;10096;51.112;6.776;2023-12-20T10:56:24;11.57;;;5.20;;
19867;SDS011;10096;51.112;6.776;2023-12-20T10:58:57;13.63;;;4.63;;
19867;SDS011;10096;51.112;6.776;2023-12-20T11:01:30;10.30;;;4.83;;
19867;SDS011;10096;51.112;6.776;2023-12-20T11:03:57;10.73;;;4.63;;
19867;SDS011;10096;51.112;6.776;2023-12-20T11:06:29;12.63;;;4.57;;
19867;SDS011;10096;51.112;6.776;2023-12-20T11:09:08;11.87;;;4.50;;
19867;SDS011;10096;51.112;6.776;2023-12-20T11:11:47;11.23;;;4.90;;
19867;SDS011;10096;51.112;6.776;2023-12-20T11:14:25;14.57;;;4.87;;
19867;SDS011;10096;51.112;6.776;2023-12-20T11:17:05;12.90;;;5.78;;
19867;SDS011;10096;51.112;6.776;2023-12-20T11:19:33;12.02;;;6.00;;
19867;SDS011;10096;51.112;6.776;2023-12-20T11:22:11;14.43;;;5.23;;
19867;SDS011;10096;51.112;6.776;2023-12-20T11:24:44;13.93;;;4.90;;
19867;SDS011;10096;51.112;6.776;2023-12-20T11:27:15;16.87;;;5.20;;
19867;SDS011;10096;51.112;6.776;2023-12-20T11:29:43;12.23;;;4.53;;
19867;SDS011;10096;51.112;6.776;2023-12-20T11:32:27;10.60;;;5.00;;
19867;SDS011;10096;51.112;6.776;2023-12-20T11:34:55;9.53;;;5.03;;
19867;SDS011;10096;51.112;6.776;2023-12-20T11:37:40;11.37;;;4.80;;
19867;SDS011;10096;51.112;6.776;2023-12-20T11:40:11;10.33;;;4.70;;
19867;SDS011;10096;51.112;6.776;2023-12-20T11:42:41;16.97;;;6.50;;
19867;SDS011;10096;51.112;6.776;2023-12-20T11:45:09;13.50;;;5.03;;
19867;SDS011;10096;51.112;6.776;2023-12-20T11:47:49;8.50;;;4.73;;
19867;SDS011;10096;51.112;6.776;2023-12-20T11:50:16;8.37;;;4.67;;
19867;SDS011;10096;51.112;6.776;2023-12-20T11:52:45;10.63;;;4.70;;
19867;SDS011;10096;51.112;6.776;2023-12-20T11:55:19;11.43;;;4.77;;
19867;SDS011;10096;51.112;6.776;2023-12-20T11:57:51;10.77;;;4.13;;
19867;SDS011;10096;51.112;6.776;2023-12-20T12:00:28;8.03;;;4.53;;
19867;SDS011;10096;51.112;6.776;2023-12-20T12:02:56;7.97;;;4.80;;
19867;SDS011;10096;51.112;6.776;2023-12-20T12:05:23;17.90;;;6.67;;
19867;SDS011;10096;51.112;6.776;2023-12-20T12:07:52;11.93;;;4.80;;
19867;SDS011;10096;51.112;6.776;2023-12-20T12:10:19;9.43;;;4.80;;
19867;SDS011;10096;51.112;6.776;2023-12-20T12:12:46;11.87;;;4.67;;
19867;SDS011;10096;51.112;6.776;2023-12-20T12:15:14;12.07;;;4.27;;
19867;SDS011;10096;51.112;6.776;2023-12-20T12:17:41;9.03;;;4.17;;
19867;SDS011;10096;51.112;6.776;2023-12-20T12:20:12;11.47;;;4.57;;
19867;SDS011;10096;51.112;6.776;2023-12-20T12:25:34;11.20;;;4.97;;
19867;SDS011;10096;51.112;6.776;2023-12-20T12:28:02;13.00;;;5.07;;
19867;SDS011;10096;51.112;6.776;2023-12-20T12:30:29;12.27;;;5.17;;
19867;SDS011;10096;51.112;6.776;2023-12-20T12:33:02;12.97;;;5.00;;
19867;SDS011;10096;51.112;6.776;2023-12-20T12:35:30;14.10;;;5.33;;
19867;SDS011;10096;51.112;6.776;2023-12-20T12:37:58;16.13;;;4.90;;
19867;SDS011;10096;51.112;6.776;2023-12-20T12:40:27;14.60;;;5.40;;
19867;SDS011;10096;51.112;6.776;2023-12-20T12:42:54;12.63;;;5.33;;
19867;SDS011;10096;51.112;6.776;2023-12-20T12:45:22;12.27;;;6.00;;
19867;SDS011;10096;51.112;6.776;2023-12-20T12:47:50;12.83;;;6.80;;
19867;SDS011;10096;51.112;6.776;2023-12-20T12:50:20;14.23;;;5.87;;
19867;SDS011;10096;51.112;6.776;2023-12-20T12:52:48;12.73;;;5.57;;
19867;SDS011;10096;51.112;6.776;2023-12-20T12:55:16;13.00;;;5.67;;
19867;SDS011;10096;51.112;6.776;2023-12-20T13:00:31;12.53;;;6.33;;
19867;SDS011;10096;51.112;6.776;2023-12-20T13:03:03;14.07;;;6.00;;
19867;SDS011;10096;51.112;6.776;2023-12-20T13:05:31;12.40;;;6.77;;
19867;SDS011;10096;51.112;6.776;2023-12-20T13:07:59;10.67;;;6.00;;
19867;SDS011;10096;51.112;6.776;2023-12-20T13:10:26;12.40;;;5.90;;
19867;SDS011;10096;51.112;6.776;2023-12-20T13:12:52;15.87;;;6.60;;
19867;SDS011;10096;51.112;6.776;2023-12-20T13:15:23;11.33;;;6.10;;
19867;SDS011;10096;51.112;6.776;2023-12-20T13:17:52;10.23;;;6.30;;
19867;SDS011;10096;51.112;6.776;2023-12-20T13:20:27;10.97;;;5.43;;
19867;SDS011;10096;51.112;6.776;2023-12-20T13:22:59;14.03;;;6.43;;
19867;SDS011;10096;51.112;6.776;2023-12-20T13:25:26;12.10;;;5.33;;
19867;SDS011;10096;51.112;6.776;2023-12-20T13:27:53;12.53;;;5.37;;
19867;SDS011;10096;51.112;6.776;2023-12-20T13:30:33;12.17;;;6.30;;
19867;SDS011;10096;51.112;6.776;2023-12-20T13:33:00;14.20;;;6.70;;
19867;SDS011;10096;51.112;6.776;2023-12-20T13:35:27;11.30;;;6.47;;
19867;SDS011;10096;51.112;6.776;2023-12-20T13:40:08;14.37;;;8.23;;
19867;SDS011;10096;51.112;6.776;2023-12-20T13:41:25;11.17;;;6.07;;
19867;SDS011;10096;51.112;6.776;2023-12-20T13:43:59;10.30;;;4.90;;
19867;SDS011;10096;51.112;6.776;2023-12-20T13:46:40;12.43;;;5.60;;
19867;SDS011;10096;51.112;6.776;2023-12-20T13:49:28;7.93;;;4.97;;
19867;SDS011;10096;51.112;6.776;2023-12-20T13:51:55;11.97;;;5.07;;
19867;SDS011;10096;51.112;6.776;2023-12-20T13:54:24;9.83;;;5.90;;
19867;SDS011;10096;51.112;6.776;2023-12-20T13:56:52;9.43;;;4.77;;
19867;SDS011;10096;51.112;6.776;2023-12-20T13:59:19;10.17;;;5.17;;
19867;SDS011;10096;51.112;6.776;2023-12-20T14:01:48;10.60;;;4.83;;
19867;SDS011;10096;51.112;6.776;2023-12-20T14:04:18;7.23;;;4.50;;
19867;SDS011;10096;51.112;6.776;2023-12-20T14:06:45;8.67;;;5.07;;
19867;SDS011;10096;51.112;6.776;2023-12-20T14:09:12;8.47;;;4.43;;
19867;SDS011;10096;51.112;6.776;2023-12-20T14:11:40;10.93;;;5.07;;
19867;SDS011;10096;51.112;6.776;2023-12-20T14:14:08;9.20;;;4.90;;
19867;SDS011;10096;51.112;6.776;2023-12-20T14:16:37;10.53;;;4.70;;
19867;SDS011;10096;51.112;6.776;2023-12-20T14:22:00;9.13;;;4.83;;
19867;SDS011;10096;51.112;6.776;2023-12-20T14:24:28;7.47;;;4.87;;
19867;SDS011;10096;51.112;6.776;2023-12-20T14:27:00;9.07;;;5.47;;
19867;SDS011;10096;51.112;6.776;2023-12-20T14:29:27;9.93;;;5.30;;
19867;SDS011;10096;51.112;6.776;2023-12-20T14:31:56;15.10;;;5.60;;
19867;SDS011;10096;51.112;6.776;2023-12-20T14:34:41;11.57;;;5.80;;
19867;SDS011;10096;51.112;6.776;2023-12-20T14:37:19;12.93;;;6.00;;
19867;SDS011;10096;51.112;6.776;2023-12-20T14:39:46;16.83;;;6.97;;
19867;SDS011;10096;51.112;6.776;2023-12-20T14:42:26;11.97;;;5.40;;
19867;SDS011;10096;51.112;6.776;2023-12-20T14:44:53;10.33;;;5.57;;
19867;SDS011;10096;51.112;6.776;2023-12-20T14:47:19;8.37;;;4.97;;
19867;SDS011;10096;51.112;6.776;2023-12-20T14:49:49;13.93;;;6.00;;
19867;SDS011;10096;51.112;6.776;2023-12-20T14:52:17;11.23;;;6.00;;
19867;SDS011;10096;51.112;6.776;2023-12-20T14:54:47;11.27;;;4.60;;
19867;SDS011;10096;51.112;6.776;2023-12-20T14:57:19;11.50;;;5.40;;